createdAt,value
2022-10-11T00:01:52.373Z,3.99
2022-10-11T00:04:38.088Z,4.05
2022-10-11T00:07:23.805Z,4.05
2022-10-11T00:10:09.670Z,4.36
2022-10-11T00:12:55.457Z,3.90
2022-10-11T00:15:41.501Z,4.06
2022-10-11T00:18:27.275Z,4.38
2022-10-11T00:21:13.035Z,4.03
2022-10-11T00:23:58.905Z,4.24
2022-10-11T00:26:47.019Z,3.87
2022-10-11T00:29:33.274Z,3.41
2022-10-11T00:32:19.249Z,3.96
2022-10-11T00:35:05.241Z,3.84
2022-10-11T00:37:51.201Z,3.92
2022-10-11T00:40:37.441Z,3.79
2022-10-11T00:43:23.409Z,4.01
2022-10-11T00:46:09.462Z,3.77
2022-10-11T00:48:55.763Z,4.21
2022-10-11T00:51:41.586Z,4.13
2022-10-11T00:54:27.338Z,3.85
2022-10-11T00:57:13.367Z,4.07
2022-10-11T00:59:59.185Z,3.86
2022-10-11T01:02:45.080Z,3.95
2022-10-11T01:05:31.044Z,3.94
2022-10-11T01:08:16.779Z,4.08
2022-10-11T01:11:02.523Z,4.07
2022-10-11T01:13:48.361Z,4.14
2022-10-11T01:16:34.259Z,4.01
2022-10-11T01:19:20.165Z,3.85
2022-10-11T01:22:05.936Z,3.55
2022-10-11T01:24:51.869Z,3.59
2022-10-11T01:27:37.762Z,3.57
2022-10-11T01:30:23.567Z,4.04
2022-10-11T01:33:09.505Z,3.95
2022-10-11T01:35:55.375Z,4.04
2022-10-11T01:38:41.198Z,3.78
2022-10-11T01:41:29.141Z,3.91
2022-10-11T01:44:15.071Z,3.95
2022-10-11T01:47:01.097Z,4.07
2022-10-11T01:49:48.941Z,4.12
2022-10-11T01:52:34.732Z,4.01
2022-10-11T01:55:20.493Z,3.75
2022-10-11T01:58:06.321Z,4.21
2022-10-11T02:00:52.267Z,3.55
2022-10-11T02:03:38.322Z,3.86
2022-10-11T02:06:24.043Z,3.68
2022-10-11T02:09:09.913Z,3.54
2022-10-11T02:11:55.954Z,3.61
2022-10-11T02:14:41.815Z,3.51
2022-10-11T02:17:27.827Z,3.79
2022-10-11T02:20:13.644Z,3.57
2022-10-11T02:22:59.541Z,3.84
2022-10-11T02:25:45.449Z,3.65
2022-10-11T02:28:31.280Z,3.57
2022-10-11T02:31:17.178Z,3.57
2022-10-11T02:34:03.023Z,3.59
2022-10-11T02:36:48.809Z,3.97
2022-10-11T02:39:34.742Z,3.74
2022-10-11T02:42:20.501Z,4.51
2022-10-11T02:45:06.202Z,4.03
2022-10-11T02:47:52.120Z,3.89
2022-10-11T02:50:37.969Z,3.85
2022-10-11T02:53:23.804Z,3.66
2022-10-11T02:56:11.727Z,3.60
2022-10-11T02:58:57.590Z,3.15
2022-10-11T03:01:43.447Z,3.14
2022-10-11T03:04:29.351Z,3.07
2022-10-11T03:07:15.175Z,3.07
2022-10-11T03:10:00.947Z,3.09
2022-10-11T03:12:46.739Z,2.89
2022-10-11T03:15:32.548Z,3.23
2022-10-11T03:18:18.327Z,2.99
2022-10-11T03:21:04.115Z,2.78
2022-10-11T03:23:49.960Z,2.85
2022-10-11T03:26:35.664Z,2.93
2022-10-11T03:29:21.440Z,2.94
2022-10-11T03:32:07.386Z,2.81
2022-10-11T03:34:53.305Z,2.84
2022-10-11T03:37:39.419Z,2.87
2022-10-11T03:40:25.217Z,2.87
2022-10-11T03:43:11.131Z,2.78
2022-10-11T03:45:57.176Z,2.59
2022-10-11T03:48:42.988Z,2.94
2022-10-11T03:51:28.762Z,2.89
2022-10-11T03:54:14.609Z,2.68
2022-10-11T03:57:00.435Z,2.86
2022-10-11T03:59:46.389Z,2.73
2022-10-11T04:02:35.729Z,2.68
2022-10-11T04:05:24.373Z,2.54
2022-10-11T04:08:12.280Z,2.69
2022-10-11T04:10:58.365Z,2.99
2022-10-11T04:13:44.315Z,2.82
2022-10-11T04:16:30.175Z,2.71
2022-10-11T04:19:16.264Z,3.33
2022-10-11T04:22:04.032Z,3.18
2022-10-11T04:24:49.849Z,3.64
2022-10-11T04:27:35.756Z,3.79
2022-10-11T04:30:21.634Z,4.41
2022-10-11T04:33:07.434Z,4.71
2022-10-11T04:35:53.198Z,4.27
2022-10-11T04:38:39.026Z,4.34
2022-10-11T04:41:24.775Z,4.69
2022-10-11T04:44:10.614Z,5.06
2022-10-11T04:46:56.458Z,4.84
2022-10-11T04:49:42.183Z,5.00
2022-10-11T04:52:28.078Z,5.15
2022-10-11T04:55:13.994Z,5.26
2022-10-11T04:57:59.805Z,5.39
2022-10-11T05:00:45.794Z,5.69
2022-10-11T05:03:31.731Z,5.86
2022-10-11T05:06:17.550Z,6.55
2022-10-11T05:09:03.422Z,7.04
2022-10-11T05:11:49.269Z,8.33
2022-10-11T05:14:35.099Z,8.64
2022-10-11T05:17:21.001Z,8.89
2022-10-11T05:20:06.871Z,9.17
2022-10-11T05:22:52.736Z,8.55
2022-10-11T05:25:38.739Z,8.34
2022-10-11T05:28:24.645Z,8.44
2022-10-11T05:31:10.493Z,9.34
2022-10-11T05:33:56.440Z,11.44
2022-10-11T05:36:42.232Z,11.68
2022-10-11T05:39:28.159Z,11.61
2022-10-11T05:42:13.986Z,11.93
2022-10-11T05:44:59.788Z,11.02
2022-10-11T05:47:45.537Z,9.41
2022-10-11T05:50:31.370Z,8.86
2022-10-11T05:53:17.217Z,7.22
2022-10-11T05:56:03.381Z,7.09
2022-10-11T05:58:49.752Z,7.70
2022-10-11T06:01:35.693Z,8.81
2022-10-11T06:04:21.412Z,9.76
2022-10-11T06:07:07.326Z,10.62
2022-10-11T06:09:53.094Z,10.53
2022-10-11T06:12:38.897Z,10.78
2022-10-11T06:15:24.917Z,9.89
2022-10-11T06:18:10.601Z,9.74
2022-10-11T06:20:56.541Z,10.71
2022-10-11T06:23:42.417Z,10.74
2022-10-11T06:26:28.221Z,10.58
2022-10-11T06:29:14.235Z,9.30
2022-10-11T06:32:00.080Z,9.62
2022-10-11T06:34:45.901Z,11.01
2022-10-11T06:37:31.732Z,11.56
2022-10-11T06:40:17.488Z,12.96
2022-10-11T06:43:03.365Z,14.09
2022-10-11T06:45:49.243Z,14.44
2022-10-11T06:48:35.044Z,14.34
2022-10-11T06:51:20.944Z,15.02
2022-10-11T06:54:06.848Z,15.32
2022-10-11T06:56:52.822Z,15.38
2022-10-11T06:59:38.736Z,15.52
2022-10-11T07:02:24.563Z,17.29
2022-10-11T07:05:10.468Z,22.35
2022-10-11T07:07:56.339Z,26.39
2022-10-11T07:10:42.240Z,16.06
2022-10-11T07:13:28.250Z,13.70
2022-10-11T07:16:14.175Z,12.53
2022-10-11T07:19:02.039Z,12.71
2022-10-11T07:21:48.123Z,13.26
2022-10-11T07:24:33.899Z,12.92
2022-10-11T07:27:21.853Z,13.58
2022-10-11T07:30:07.686Z,18.48
2022-10-11T07:32:53.599Z,21.59
2022-10-11T07:35:39.445Z,17.63
2022-10-11T07:38:25.396Z,18.38
2022-10-11T07:41:11.326Z,15.62
2022-10-11T07:43:57.179Z,8.52
2022-10-11T07:46:42.960Z,7.14
2022-10-11T07:49:28.907Z,5.81
2022-10-11T07:52:14.760Z,5.65
2022-10-11T07:55:00.609Z,6.17
2022-10-11T07:57:46.371Z,4.83
2022-10-11T08:00:32.285Z,5.73
2022-10-11T08:03:18.194Z,7.70
2022-10-11T08:06:04.437Z,8.75
2022-10-11T08:08:50.682Z,16.66
2022-10-11T08:11:36.685Z,8.13
2022-10-11T08:14:22.465Z,8.25
2022-10-11T08:17:08.413Z,26.68
2022-10-11T08:19:54.266Z,7.52
2022-10-11T08:22:40.113Z,6.73
2022-10-11T08:25:25.902Z,5.93
2022-10-11T08:28:12.034Z,44.03
2022-10-11T08:30:57.776Z,66.17
2022-10-11T08:33:43.732Z,80.75
2022-10-11T08:36:29.604Z,61.91
2022-10-11T08:39:16.053Z,117.70
2022-10-11T08:42:02.070Z,7.64
2022-10-11T08:45:27.656Z,8.49
2022-10-11T08:57:50.154Z,9.57
2022-10-11T09:00:36.096Z,10.32
2022-10-11T09:03:21.959Z,10.28
2022-10-11T09:06:08.516Z,9.98
2022-10-11T09:08:54.890Z,11.20
2022-10-11T09:11:40.790Z,10.22
2022-10-11T09:14:26.493Z,10.53
2022-10-11T09:17:12.626Z,22.38
2022-10-11T09:19:58.511Z,10.97
2022-10-11T09:22:44.316Z,16.80
2022-10-11T09:25:30.391Z,10.16
2022-10-11T09:28:16.368Z,13.45
2022-10-11T09:31:02.199Z,9.81
2022-10-11T09:33:48.345Z,10.26
2022-10-11T09:36:34.242Z,10.29
2022-10-11T09:39:20.203Z,11.38
2022-10-11T09:42:05.973Z,10.86
2022-10-11T09:44:51.904Z,10.57
2022-10-11T09:47:37.756Z,10.92
2022-10-11T09:50:23.587Z,11.04
2022-10-11T09:53:09.493Z,11.07
2022-10-11T09:55:55.284Z,10.82
2022-10-11T09:58:41.050Z,10.80
2022-10-11T10:01:27.047Z,9.16
2022-10-11T10:04:12.723Z,8.68
2022-10-11T10:06:58.714Z,8.76
2022-10-11T10:09:46.741Z,9.98
2022-10-11T10:12:32.598Z,12.73
2022-10-11T10:15:18.335Z,22.71
2022-10-11T10:18:04.174Z,35.27
2022-10-11T10:20:49.901Z,16.38
2022-10-11T10:23:35.761Z,16.22
2022-10-11T10:26:21.582Z,15.77
2022-10-11T10:29:07.344Z,15.58
2022-10-11T10:34:59.330Z,10.64
2022-10-11T10:37:45.014Z,9.31
2022-10-11T10:40:31.128Z,9.91
2022-10-11T10:43:16.818Z,9.37
2022-10-11T10:46:05.204Z,7.03
2022-10-11T10:51:57.210Z,6.66
2022-10-11T10:54:42.944Z,5.72
2022-10-11T10:57:28.830Z,6.54
2022-10-11T11:00:14.895Z,6.51
2022-10-11T11:03:01.002Z,5.47
2022-10-11T11:05:46.835Z,6.01
2022-10-11T11:08:32.520Z,6.74
2022-10-11T11:11:18.589Z,6.30
2022-10-11T11:14:04.360Z,6.33
2022-10-11T11:16:50.146Z,5.74
2022-10-11T11:19:36.170Z,6.00
2022-10-11T11:22:22.081Z,4.88
2022-10-11T11:25:07.845Z,4.71
2022-10-11T11:27:53.748Z,4.76
2022-10-11T11:30:39.540Z,4.48
2022-10-11T11:33:25.347Z,5.00
2022-10-11T11:36:11.349Z,5.16
2022-10-11T11:38:57.338Z,4.92
2022-10-11T11:41:43.335Z,4.55
2022-10-11T11:44:29.107Z,5.19
2022-10-11T11:47:14.844Z,4.88
2022-10-11T11:50:00.632Z,5.79
2022-10-11T11:52:46.403Z,5.70
2022-10-11T11:55:32.215Z,5.31
2022-10-11T11:58:18.068Z,5.18
2022-10-11T12:01:04.365Z,6.44
2022-10-11T12:03:50.486Z,6.31
2022-10-11T12:06:43.739Z,6.94
2022-10-11T12:09:38.717Z,7.48
2022-10-11T12:12:24.569Z,7.82
2022-10-11T12:15:10.416Z,7.50
2022-10-11T12:17:56.338Z,7.81
2022-10-11T12:20:42.295Z,7.65
2022-10-11T12:23:28.042Z,8.53
2022-10-11T12:26:13.818Z,8.34
2022-10-11T12:28:59.591Z,8.47
2022-10-11T12:31:46.311Z,9.10
2022-10-11T12:34:32.405Z,8.99
2022-10-11T12:37:18.372Z,9.07
2022-10-11T12:40:04.280Z,7.99
2022-10-11T12:42:50.139Z,8.35
2022-10-11T12:45:35.959Z,8.42
2022-10-11T12:48:21.950Z,7.22
2022-10-11T12:51:07.670Z,6.15
2022-10-11T12:54:14.437Z,6.15
2022-10-11T12:56:59.421Z,7.15
2022-10-11T12:59:45.182Z,7.92
2022-10-11T13:02:31.182Z,7.08
2022-10-11T13:05:17.272Z,6.33
2022-10-11T13:08:03.136Z,6.28
2022-10-11T13:10:49.025Z,6.88
2022-10-11T13:13:34.856Z,6.98
2022-10-11T13:16:20.759Z,6.95
2022-10-11T13:19:06.694Z,6.88
2022-10-11T13:21:52.691Z,6.23
2022-10-11T13:24:38.925Z,6.37
2022-10-11T13:27:24.799Z,6.40
2022-10-11T13:30:12.683Z,6.30
2022-10-11T13:32:58.572Z,6.27
2022-10-11T13:35:44.489Z,7.08
2022-10-11T13:38:30.293Z,6.82
2022-10-11T13:41:16.090Z,7.13
2022-10-11T13:44:01.825Z,7.23
2022-10-11T13:46:47.716Z,7.41
2022-10-11T13:49:33.574Z,7.29
2022-10-11T13:52:19.472Z,7.67
2022-10-11T13:55:05.375Z,8.70
2022-10-11T13:57:51.375Z,8.35
2022-10-11T14:00:37.328Z,8.27
2022-10-11T14:03:23.236Z,8.16
2022-10-11T14:06:09.444Z,8.54
2022-10-11T14:08:55.501Z,8.37
2022-10-11T14:11:43.451Z,8.79
2022-10-11T14:14:29.129Z,8.18
2022-10-11T14:17:17.062Z,8.26
2022-10-11T14:20:08.669Z,8.20
2022-10-11T14:22:56.976Z,8.40
2022-10-11T14:25:42.840Z,7.87
2022-10-11T14:28:28.696Z,7.50
2022-10-11T14:31:14.696Z,6.88
2022-10-11T14:34:00.765Z,7.02
2022-10-11T14:36:46.884Z,6.78
2022-10-11T14:39:32.811Z,6.74
2022-10-11T14:42:18.642Z,6.45
2022-10-11T14:45:04.537Z,6.39
2022-10-11T14:47:50.598Z,6.30
2022-10-11T14:50:36.525Z,6.94
2022-10-11T14:53:22.512Z,8.04
2022-10-11T14:56:08.745Z,7.82
2022-10-11T14:58:54.948Z,8.35
2022-10-11T15:01:40.892Z,7.83
2022-10-11T15:04:26.580Z,8.21
2022-10-11T15:07:12.555Z,8.25
2022-10-11T15:09:58.345Z,8.24
2022-10-11T15:12:44.159Z,7.75
2022-10-11T15:15:29.944Z,8.00
2022-10-11T15:18:15.686Z,7.70
2022-10-11T15:21:01.558Z,7.80
2022-10-11T15:23:47.886Z,7.82
2022-10-11T15:26:33.683Z,8.20
2022-10-11T15:29:19.691Z,7.77
2022-10-11T15:32:05.627Z,7.45
2022-10-11T15:34:53.525Z,7.27
2022-10-11T15:37:39.390Z,7.25
2022-10-11T15:40:25.132Z,7.42
2022-10-11T15:43:11.143Z,7.41
2022-10-11T15:45:57.075Z,7.91
2022-10-11T15:48:42.859Z,7.79
2022-10-11T15:51:28.657Z,8.08
2022-10-11T15:54:14.563Z,8.27
2022-10-11T15:57:00.371Z,7.80
2022-10-11T15:59:46.298Z,8.39
2022-10-11T16:02:32.079Z,8.64
2022-10-11T16:05:19.942Z,8.96
2022-10-11T16:08:05.786Z,8.70
2022-10-11T16:10:51.632Z,8.68
2022-10-11T16:13:37.651Z,8.25
2022-10-11T16:16:23.725Z,8.65
2022-10-11T16:19:09.537Z,8.53
2022-10-11T16:21:55.424Z,8.34
2022-10-11T16:24:41.242Z,8.59
2022-10-11T16:27:27.032Z,8.83
2022-10-11T16:30:12.965Z,9.67
2022-10-11T16:32:58.736Z,9.96
2022-10-11T16:35:44.724Z,10.17
2022-10-11T16:38:31.044Z,10.09
2022-10-11T16:41:16.822Z,9.93
2022-10-11T16:44:02.800Z,10.19
2022-10-11T16:46:48.635Z,10.13
2022-10-11T16:49:34.449Z,10.22
2022-10-11T16:52:20.381Z,10.22
2022-10-11T16:55:06.183Z,10.16
2022-10-11T16:57:52.084Z,9.91
2022-10-11T17:00:38.007Z,10.04
2022-10-11T17:03:23.845Z,9.75
2022-10-11T17:06:09.959Z,10.42
2022-10-11T17:08:56.144Z,10.88
2022-10-11T17:11:41.992Z,9.69
2022-10-11T17:14:27.824Z,10.33
2022-10-11T17:17:13.629Z,10.78
2022-10-11T17:19:59.521Z,10.71
2022-10-11T17:22:45.336Z,10.40
2022-10-11T17:25:31.090Z,10.54
2022-10-11T17:28:17.159Z,10.42
2022-10-11T17:31:03.449Z,10.06
2022-10-11T17:33:49.449Z,10.19
2022-10-11T17:36:35.496Z,10.28
2022-10-11T17:39:21.343Z,10.92
2022-10-11T17:42:07.376Z,10.16
2022-10-11T17:44:53.241Z,9.98
2022-10-11T17:47:41.119Z,10.68
2022-10-11T17:50:26.987Z,10.03
2022-10-11T17:53:12.700Z,10.35
2022-10-11T17:55:58.534Z,10.42
2022-10-11T17:58:44.376Z,10.51
2022-10-11T18:01:30.261Z,10.39
2022-10-11T18:04:16.159Z,10.26
2022-10-11T18:07:02.135Z,9.67
2022-10-11T18:09:47.980Z,10.01
2022-10-11T18:12:33.846Z,9.72
2022-10-11T18:15:19.855Z,9.71
2022-10-11T18:18:05.786Z,9.96
2022-10-11T18:20:51.674Z,9.86
2022-10-11T18:23:37.481Z,9.81
2022-10-11T18:26:26.699Z,9.51
2022-10-11T18:29:16.066Z,9.10
2022-10-11T18:32:01.980Z,9.18
2022-10-11T18:34:47.775Z,9.30
2022-10-11T18:37:33.613Z,9.43
2022-10-11T18:40:19.362Z,9.74
2022-10-11T18:43:05.347Z,9.48
2022-10-11T18:45:51.201Z,9.03
2022-10-11T18:48:37.039Z,9.24
2022-10-11T18:51:22.828Z,9.72
2022-10-11T18:54:08.541Z,9.59
2022-10-11T18:56:54.494Z,9.61
2022-10-11T18:59:40.435Z,9.25
2022-10-11T19:02:26.070Z,9.52
2022-10-11T19:05:11.902Z,9.71
2022-10-11T19:07:57.838Z,9.34
2022-10-11T19:10:43.744Z,9.73
2022-10-11T19:13:29.553Z,9.28
2022-10-11T19:16:15.400Z,9.75
2022-10-11T19:19:03.166Z,9.31
2022-10-11T19:21:51.196Z,9.30
2022-10-11T19:24:37.033Z,9.12
2022-10-11T19:27:22.746Z,9.70
2022-10-11T19:30:08.597Z,9.88
2022-10-11T19:32:54.514Z,9.90
2022-10-11T19:35:40.459Z,10.27
2022-10-11T19:38:26.404Z,10.45
2022-10-11T19:41:12.280Z,10.27
2022-10-11T19:43:58.246Z,10.67
2022-10-11T19:46:51.632Z,10.83
2022-10-11T19:49:38.434Z,11.08
2022-10-11T19:52:24.254Z,10.77
2022-10-11T19:55:10.228Z,11.38
2022-10-11T19:57:55.926Z,11.72
2022-10-11T20:00:41.843Z,11.59
2022-10-11T20:03:27.806Z,11.53
2022-10-11T20:06:13.721Z,11.31
2022-10-11T20:09:27.461Z,11.56
2022-10-11T20:12:07.431Z,11.47
2022-10-11T20:14:53.289Z,12.11
2022-10-11T20:17:39.053Z,11.80
2022-10-11T20:20:24.931Z,12.56
2022-10-11T20:23:14.765Z,12.86
2022-10-11T20:26:04.697Z,12.87
2022-10-11T20:28:55.700Z,12.97
2022-10-11T20:31:41.892Z,13.36
2022-10-11T20:34:27.824Z,13.69
2022-10-11T20:37:13.770Z,14.32
2022-10-11T20:39:59.565Z,14.29
2022-10-11T20:42:48.585Z,14.11
2022-10-11T20:45:34.365Z,14.64
2022-10-11T20:48:22.290Z,14.96
2022-10-11T20:51:08.063Z,14.77
2022-10-11T20:53:54.003Z,15.06
2022-10-11T20:56:39.847Z,15.53
2022-10-11T20:59:25.798Z,15.86
2022-10-11T21:02:14.334Z,15.45
2022-10-11T21:05:04.221Z,15.63
2022-10-11T21:07:50.310Z,16.81
2022-10-11T21:10:36.199Z,17.19
2022-10-11T21:13:22.209Z,18.04
2022-10-11T21:16:07.974Z,18.53
2022-10-11T21:18:53.733Z,18.31
2022-10-11T21:21:39.671Z,18.95
2022-10-11T21:24:25.664Z,18.54
2022-10-11T21:27:11.496Z,18.18
2022-10-11T21:29:57.175Z,18.94
2022-10-11T21:32:43.064Z,18.79
2022-10-11T21:35:28.933Z,18.65
2022-10-11T21:38:14.926Z,19.09
2022-10-11T21:41:00.833Z,18.55
2022-10-11T21:43:46.848Z,18.46
2022-10-11T21:49:38.689Z,18.62
2022-10-11T21:52:24.514Z,19.28
2022-10-11T21:55:10.462Z,19.58
2022-10-11T21:57:56.332Z,19.28
2022-10-11T22:00:42.263Z,19.47
2022-10-11T22:03:28.234Z,20.43
2022-10-11T22:06:14.041Z,21.59
2022-10-11T22:09:00.093Z,21.61
2022-10-11T22:11:46.044Z,22.30
2022-10-11T22:14:31.861Z,22.42
2022-10-11T22:17:17.882Z,22.84
2022-10-11T22:20:03.790Z,22.52
2022-10-11T22:22:49.585Z,22.90
2022-10-11T22:25:35.446Z,22.81
2022-10-11T22:28:21.358Z,22.42
2022-10-11T22:31:07.286Z,23.17
2022-10-11T22:33:53.146Z,23.41
2022-10-11T22:36:39.065Z,23.84
2022-10-11T22:39:25.053Z,23.95
2022-10-11T22:42:10.939Z,23.89
2022-10-11T22:44:56.832Z,24.24
2022-10-11T22:47:42.581Z,24.24
2022-10-11T22:50:28.611Z,23.99
2022-10-11T22:53:16.531Z,23.62
2022-10-11T22:56:02.355Z,24.12
2022-10-11T22:58:48.274Z,24.34
2022-10-11T23:01:34.215Z,25.10
2022-10-11T23:04:19.897Z,24.85
2022-10-11T23:07:05.842Z,24.99
2022-10-11T23:09:51.678Z,25.05
2022-10-11T23:12:37.599Z,25.35
2022-10-11T23:15:23.521Z,24.59
2022-10-11T23:18:09.441Z,25.27
2022-10-11T23:20:55.378Z,25.22
2022-10-11T23:23:41.224Z,24.82
2022-10-11T23:26:27.022Z,24.80
2022-10-11T23:29:12.936Z,23.84
2022-10-11T23:31:58.674Z,23.22
2022-10-11T23:34:44.570Z,22.51
2022-10-11T23:37:30.364Z,22.80
2022-10-11T23:40:16.095Z,22.12
2022-10-11T23:43:02.008Z,21.94
2022-10-11T23:45:47.794Z,21.95
2022-10-11T23:48:33.694Z,21.76
2022-10-11T23:51:19.487Z,21.19
2022-10-11T23:54:05.265Z,20.32
2022-10-11T23:56:53.062Z,21.48
2022-10-11T23:59:38.982Z,20.90
